createdAt,value
2022-09-07T00:01:25.951Z,22.20
2022-09-07T00:05:28.956Z,22.20
2022-09-07T00:09:31.679Z,22.10
2022-09-07T00:13:37.934Z,22.00
2022-09-07T00:17:42.085Z,21.90
2022-09-07T00:21:46.421Z,21.90
2022-09-07T00:25:53.903Z,21.90
2022-09-07T00:29:58.246Z,21.90
2022-09-07T00:34:03.121Z,22.00
2022-09-07T00:38:05.881Z,22.00
2022-09-07T00:42:08.818Z,22.00
2022-09-07T00:46:16.584Z,22.00
2022-09-07T00:50:23.006Z,22.00
2022-09-07T00:54:29.302Z,22.00
2022-09-07T00:58:33.556Z,22.00
2022-09-07T01:02:38.159Z,22.10
2022-09-07T01:06:42.428Z,22.10
2022-09-07T01:10:46.770Z,22.10
2022-09-07T01:14:52.702Z,22.10
2022-09-07T01:19:05.965Z,22.10
2022-09-07T01:23:44.348Z,22.10
2022-09-07T01:28:07.822Z,22.10
2022-09-07T01:32:19.678Z,22.10
2022-09-07T01:36:33.520Z,22.10
2022-09-07T01:40:44.944Z,22.10
2022-09-07T01:44:53.474Z,22.00
2022-09-07T01:48:59.692Z,21.80
2022-09-07T01:53:07.417Z,21.60
2022-09-07T01:57:13.896Z,21.40
2022-09-07T02:01:23.989Z,21.30
2022-09-07T02:05:31.542Z,21.20
2022-09-07T02:09:38.379Z,21.10
2022-09-07T02:13:43.871Z,21.00
2022-09-07T02:17:53.280Z,21.00
2022-09-07T02:22:01.550Z,21.00
2022-09-07T02:26:09.323Z,20.80
2022-09-07T02:30:13.360Z,20.80
2022-09-07T02:34:17.484Z,20.70
2022-09-07T02:38:20.642Z,20.70
2022-09-07T02:42:23.482Z,20.60
2022-09-07T02:46:45.644Z,20.50
2022-09-07T02:51:04.289Z,20.40
2022-09-07T02:55:16.667Z,20.10
2022-09-07T02:59:33.379Z,19.70
2022-09-07T03:03:44.717Z,19.60
2022-09-07T03:07:55.478Z,19.50
2022-09-07T03:11:58.549Z,19.40
2022-09-07T03:16:01.549Z,19.10
2022-09-07T03:20:04.955Z,19.20
2022-09-07T03:24:09.493Z,19.10
2022-09-07T03:28:12.525Z,19.00
2022-09-07T03:32:15.280Z,18.90
2022-09-07T03:36:18.061Z,18.90
2022-09-07T03:40:22.226Z,18.80
2022-09-07T03:44:24.998Z,18.80
2022-09-07T03:48:27.900Z,18.90
2022-09-07T03:52:30.793Z,18.90
2022-09-07T03:56:34.929Z,18.90
2022-09-07T04:00:42.009Z,18.80
2022-09-07T04:04:46.043Z,18.80
2022-09-07T04:08:48.792Z,18.70
2022-09-07T04:12:52.882Z,18.60
2022-09-07T04:16:55.775Z,18.50
2022-09-07T04:21:00.025Z,18.30
2022-09-07T04:25:02.844Z,18.30
2022-09-07T04:29:08.655Z,18.30
2022-09-07T04:33:12.191Z,18.40
2022-09-07T04:37:14.957Z,18.40
2022-09-07T04:41:19.615Z,18.30
2022-09-07T04:45:23.796Z,18.30
2022-09-07T04:49:26.626Z,18.20
2022-09-07T04:53:29.747Z,18.30
2022-09-07T04:57:32.672Z,18.40
2022-09-07T05:01:36.825Z,18.40
2022-09-07T05:05:39.841Z,18.40
2022-09-07T05:09:42.904Z,18.50
2022-09-07T05:13:45.710Z,18.40
2022-09-07T05:17:50.106Z,18.50
2022-09-07T05:21:52.854Z,18.50
2022-09-07T05:25:55.585Z,18.50
2022-09-07T05:38:32.391Z,18.60
2022-09-07T05:42:36.319Z,18.50
2022-09-07T05:46:39.090Z,18.50
2022-09-07T05:50:51.011Z,18.60
2022-09-07T05:54:59.244Z,18.60
2022-09-07T05:59:10.620Z,18.60
2022-09-07T06:03:13.560Z,18.70
2022-09-07T06:07:22.135Z,18.80
2022-09-07T06:11:27.263Z,18.90
2022-09-07T06:15:30.170Z,18.90
2022-09-07T06:19:32.905Z,19.00
2022-09-07T06:23:38.816Z,19.10
2022-09-07T06:27:41.570Z,19.00
2022-09-07T06:36:09.504Z,19.00
2022-09-07T06:40:13.967Z,19.10
2022-09-07T06:44:16.814Z,19.10
2022-09-07T06:48:19.560Z,19.20
2022-09-07T06:52:22.567Z,19.30
2022-09-07T06:56:27.349Z,19.40
2022-09-07T07:00:30.106Z,19.50
2022-09-07T07:04:37.794Z,19.60
2022-09-07T07:08:43.498Z,19.70
2022-09-07T07:12:47.574Z,19.70
2022-09-07T07:16:50.334Z,19.80
2022-09-07T07:20:53.142Z,19.90
2022-09-07T07:24:55.898Z,20.10
2022-09-07T07:33:08.068Z,20.30
2022-09-07T07:37:10.818Z,20.30
2022-09-07T07:54:19.712Z,20.80
2022-09-07T07:58:22.553Z,21.10
2022-09-07T08:02:26.635Z,21.40
2022-09-07T08:06:29.738Z,21.90
2022-09-07T08:10:32.506Z,22.10
2022-09-07T08:14:36.538Z,22.40
2022-09-07T08:18:41.004Z,22.60
2022-09-07T08:22:43.989Z,22.80
2022-09-07T08:26:46.711Z,23.20
2022-09-07T08:30:49.430Z,23.40
2022-09-07T08:34:53.695Z,23.70
2022-09-07T08:38:56.423Z,24.10
2022-09-07T08:43:07.580Z,24.60
2022-09-07T08:47:21.890Z,25.00
2022-09-07T08:51:34.849Z,25.40
2022-09-07T08:55:42.056Z,25.40
2022-09-07T08:59:50.057Z,25.50
2022-09-07T09:08:28.524Z,26.20
2022-09-07T09:12:44.877Z,26.10
2022-09-07T09:16:52.984Z,26.40
2022-09-07T09:20:57.711Z,26.30
2022-09-07T09:25:15.581Z,26.00
2022-09-07T09:29:21.073Z,25.80
2022-09-07T09:33:25.862Z,25.80
2022-09-07T09:37:35.901Z,26.10
2022-09-07T09:41:40.475Z,26.40
2022-09-07T09:54:44.358Z,27.20
2022-09-07T10:07:52.838Z,27.30
2022-09-07T10:12:08.284Z,27.30
2022-09-07T10:16:13.087Z,26.80
2022-09-07T10:20:32.192Z,26.70
2022-09-07T10:24:39.466Z,26.70
2022-09-07T10:33:12.130Z,26.60
2022-09-07T10:37:25.158Z,26.60
2022-09-07T10:41:41.876Z,26.80
2022-09-07T10:46:03.428Z,26.70
2022-09-07T10:50:25.375Z,26.80
2022-09-07T10:54:37.090Z,26.90
2022-09-07T10:59:09.149Z,26.90
2022-09-07T11:03:28.051Z,26.60
2022-09-07T11:07:55.203Z,26.50
2022-09-07T11:12:04.272Z,26.50
2022-09-07T11:16:50.416Z,26.50
2022-09-07T11:20:40.292Z,26.70
2022-09-07T11:25:29.080Z,26.50
2022-09-07T11:29:34.710Z,26.50
2022-09-07T11:34:23.789Z,26.60
2022-09-07T11:38:15.334Z,26.90
2022-09-07T11:46:49.928Z,26.90
2022-09-07T11:50:58.499Z,27.10
2022-09-07T11:55:05.324Z,26.90
2022-09-07T11:59:23.709Z,26.90
2022-09-07T12:03:51.652Z,26.80
2022-09-07T12:08:17.190Z,26.80
2022-09-07T12:12:48.908Z,26.80
2022-09-07T12:17:15.872Z,26.80
2022-09-07T12:21:43.697Z,26.90
2022-09-07T12:25:48.450Z,26.60
2022-09-07T12:30:12.482Z,26.40
2022-09-07T12:35:01.196Z,26.50
2022-09-07T12:39:24.666Z,26.70
2022-09-07T12:44:08.558Z,27.00
2022-09-07T12:48:23.796Z,26.90
2022-09-07T12:52:46.634Z,26.70
2022-09-07T13:01:31.566Z,26.70
2022-09-07T13:05:47.032Z,26.90
2022-09-07T13:09:57.346Z,26.90
2022-09-07T13:14:08.487Z,26.90
2022-09-07T13:18:37.383Z,27.10
2022-09-07T13:22:56.933Z,27.40
2022-09-07T13:27:02.906Z,27.30
2022-09-07T13:31:22.049Z,27.20
2022-09-07T13:35:26.289Z,26.90
2022-09-07T13:39:39.810Z,26.70
2022-09-07T13:43:48.373Z,26.50
2022-09-07T13:47:59.605Z,26.50
2022-09-07T13:52:08.967Z,26.60
2022-09-07T13:56:19.998Z,27.00
2022-09-07T14:00:22.838Z,27.30
2022-09-07T14:04:28.384Z,27.60
2022-09-07T14:08:31.306Z,27.30
2022-09-07T14:12:43.393Z,27.20
2022-09-07T14:16:54.612Z,27.30
2022-09-07T14:20:58.976Z,26.80
2022-09-07T14:25:03.471Z,26.30
2022-09-07T14:29:21.669Z,26.50
2022-09-07T14:33:24.631Z,26.50
2022-09-07T14:37:29.550Z,26.80
2022-09-07T14:41:34.712Z,26.60
2022-09-07T14:45:37.991Z,26.70
2022-09-07T14:49:40.906Z,27.00
2022-09-07T14:53:50.422Z,27.60
2022-09-07T14:58:23.078Z,27.90
2022-09-07T15:02:33.664Z,28.30
2022-09-07T15:15:33.215Z,28.40
2022-09-07T15:19:36.010Z,27.80
2022-09-07T15:23:39.915Z,27.50
2022-09-07T15:27:44.008Z,27.50
2022-09-07T15:31:57.013Z,27.20
2022-09-07T15:36:04.655Z,26.90
2022-09-07T15:40:16.488Z,26.70
2022-09-07T15:44:25.211Z,26.90
2022-09-07T15:48:29.438Z,27.00
2022-09-07T15:52:32.616Z,26.70
2022-09-07T15:56:36.873Z,26.50
2022-09-07T16:00:41.220Z,26.20
2022-09-07T16:04:44.523Z,26.00
2022-09-07T16:08:51.477Z,26.10
2022-09-07T16:13:03.105Z,26.10
2022-09-07T16:17:35.636Z,26.10
2022-09-07T16:21:41.027Z,26.30
2022-09-07T16:25:59.034Z,26.30
2022-09-07T16:30:05.198Z,26.10
2022-09-07T16:34:09.299Z,26.00
2022-09-07T16:42:37.463Z,25.70
2022-09-07T16:46:40.394Z,25.60
2022-09-07T16:50:58.944Z,25.50
2022-09-07T16:55:05.147Z,25.20
2022-09-07T16:59:09.423Z,25.00
2022-09-07T17:03:13.364Z,24.90
2022-09-07T17:07:17.460Z,24.70
2022-09-07T17:11:22.318Z,24.60
2022-09-07T17:15:27.446Z,24.60
2022-09-07T17:19:30.521Z,24.50
2022-09-07T17:23:44.524Z,24.60
2022-09-07T17:27:50.725Z,24.50
2022-09-07T17:36:18.426Z,24.30
2022-09-07T17:40:23.479Z,24.10
2022-09-07T17:44:29.822Z,24.00
2022-09-07T17:48:37.349Z,24.00
2022-09-07T17:52:41.228Z,23.80
2022-09-07T17:56:49.706Z,23.70
2022-09-07T18:00:53.147Z,23.60
2022-09-07T18:04:56.092Z,23.50
2022-09-07T18:09:02.877Z,23.40
2022-09-07T18:13:07.257Z,23.30
2022-09-07T18:17:10.157Z,23.30
2022-09-07T18:21:15.304Z,23.20
2022-09-07T18:25:18.349Z,23.10
2022-09-07T18:29:34.039Z,23.00
2022-09-07T18:33:37.787Z,23.00
2022-09-07T18:37:40.556Z,22.90
2022-09-07T18:41:43.354Z,22.80
2022-09-07T18:45:47.441Z,22.80
2022-09-07T18:49:50.726Z,22.70
2022-09-07T18:53:53.470Z,22.70
2022-09-07T18:57:56.229Z,22.60
2022-09-07T19:02:04.470Z,22.50
2022-09-07T19:06:12.804Z,22.50
2022-09-07T19:10:16.718Z,22.40
2022-09-07T19:14:19.683Z,22.30
2022-09-07T19:18:23.773Z,22.20
2022-09-07T19:22:27.224Z,22.00
2022-09-07T19:26:32.931Z,21.90
2022-09-07T19:30:36.272Z,21.80
2022-09-07T19:34:42.341Z,21.70
2022-09-07T19:38:45.517Z,21.60
2022-09-07T19:42:48.205Z,21.60
2022-09-07T19:46:51.174Z,21.50
2022-09-07T19:50:55.389Z,21.40
2022-09-07T19:55:00.302Z,21.30
2022-09-07T19:59:03.930Z,21.20
2022-09-07T20:03:10.845Z,21.20
2022-09-07T20:07:15.227Z,21.20
2022-09-07T20:11:18.894Z,21.20
2022-09-07T20:15:21.649Z,21.20
2022-09-07T20:19:24.543Z,21.10
2022-09-07T20:23:28.629Z,21.10
2022-09-07T20:27:32.111Z,21.00
2022-09-07T20:31:34.968Z,21.00
2022-09-07T20:35:37.742Z,21.00
2022-09-07T20:39:41.908Z,20.90
2022-09-07T20:43:44.779Z,20.80
2022-09-07T20:47:47.489Z,20.80
2022-09-07T20:51:50.226Z,20.90
2022-09-07T20:56:00.851Z,20.80
2022-09-07T21:00:04.108Z,20.60
2022-09-07T21:04:06.808Z,20.50
2022-09-07T21:08:09.650Z,20.40
2022-09-07T21:12:13.716Z,20.30
2022-09-07T21:16:17.506Z,20.20
2022-09-07T21:20:20.205Z,20.20
2022-09-07T21:24:24.536Z,20.00
2022-09-07T21:28:29.426Z,20.10
2022-09-07T21:32:32.361Z,20.10
2022-09-07T21:36:35.127Z,20.00
2022-09-07T21:40:41.350Z,19.90
2022-09-07T21:44:47.080Z,19.90
2022-09-07T21:48:49.815Z,19.80
2022-09-07T21:52:52.535Z,19.80
2022-09-07T21:56:55.217Z,19.90
2022-09-07T22:01:01.137Z,19.90
2022-09-07T22:05:04.068Z,20.00
2022-09-07T22:09:06.838Z,20.10
2022-09-07T22:13:09.565Z,20.00
2022-09-07T22:17:14.151Z,20.00
2022-09-07T22:21:19.445Z,20.00
2022-09-07T22:25:22.180Z,20.00
2022-09-07T22:29:24.947Z,20.00
2022-09-07T22:33:28.997Z,20.00
2022-09-07T22:37:32.178Z,19.90
2022-09-07T22:41:36.719Z,19.90
2022-09-07T22:45:39.515Z,19.80
2022-09-07T22:49:43.603Z,19.80
2022-09-07T22:53:46.372Z,19.70
2022-09-07T22:57:49.079Z,19.70
2022-09-07T23:01:51.803Z,19.70
2022-09-07T23:05:56.728Z,19.60
2022-09-07T23:10:00.813Z,19.60
2022-09-07T23:14:06.490Z,19.50
2022-09-07T23:18:09.534Z,19.50
2022-09-07T23:22:14.291Z,19.40
2022-09-07T23:26:17.110Z,19.30
2022-09-07T23:30:19.903Z,19.20
2022-09-07T23:34:22.651Z,19.00
2022-09-07T23:38:27.320Z,19.00
2022-09-07T23:42:30.026Z,19.10
2022-09-07T23:46:32.816Z,19.10
2022-09-07T23:50:35.625Z,19.10
2022-09-07T23:54:39.762Z,19.00
2022-09-07T23:58:43.469Z,18.90
